sensor_id;sensor_type;location;lat;lon;timestamp;temperature;humidity
75153;HTU21D;63734;45.218;36.708;2023-03-05T00:00:13;7.99;95.94
75153;HTU21D;63734;45.218;36.708;2023-03-05T00:02:40;7.99;95.78
75153;HTU21D;63734;45.218;36.708;2023-03-05T00:05:07;8.02;95.84
75153;HTU21D;63734;45.218;36.708;2023-03-05T00:07:34;8.02;95.88
75153;HTU21D;63734;45.218;36.708;2023-03-05T00:10:02;8.01;95.87
75153;HTU21D;63734;45.218;36.708;2023-03-05T00:12:28;8.00;96.33
75153;HTU21D;63734;45.218;36.708;2023-03-05T00:14:55;8.02;96.26
75153;HTU21D;63734;45.218;36.708;2023-03-05T00:17:20;8.00;96.29
75153;HTU21D;63734;45.218;36.708;2023-03-05T00:19:46;8.00;96.93
75153;HTU21D;63734;45.218;36.708;2023-03-05T00:22:12;7.98;96.80
75153;HTU21D;63734;45.218;36.708;2023-03-05T00:24:38;7.96;97.49
75153;HTU21D;63734;45.218;36.708;2023-03-05T00:27:04;7.92;97.12
75153;HTU21D;63734;45.218;36.708;2023-03-05T00:29:30;7.91;97.11
75153;HTU21D;63734;45.218;36.708;2023-03-05T00:31:56;7.92;97.16
75153;HTU21D;63734;45.218;36.708;2023-03-05T00:34:23;7.89;96.97
75153;HTU21D;63734;45.218;36.708;2023-03-05T00:36:51;7.86;96.81
75153;HTU21D;63734;45.218;36.708;2023-03-05T00:39:20;7.83;96.71
75153;HTU21D;63734;45.218;36.708;2023-03-05T00:41:46;7.78;96.65
75153;HTU21D;63734;45.218;36.708;2023-03-05T00:44:12;7.75;96.55
75153;HTU21D;63734;45.218;36.708;2023-03-05T00:46:38;7.68;96.48
75153;HTU21D;63734;45.218;36.708;2023-03-05T00:49:05;7.63;96.43
75153;HTU21D;63734;45.218;36.708;2023-03-05T00:51:31;7.59;96.30
75153;HTU21D;63734;45.218;36.708;2023-03-05T00:53:57;7.59;96.26
75153;HTU21D;63734;45.218;36.708;2023-03-05T00:56:24;7.53;96.04
75153;HTU21D;63734;45.218;36.708;2023-03-05T00:58:50;7.49;95.90
75153;HTU21D;63734;45.218;36.708;2023-03-05T01:01:18;7.47;95.79
75153;HTU21D;63734;45.218;36.708;2023-03-05T01:03:44;7.45;95.62
75153;HTU21D;63734;45.218;36.708;2023-03-05T01:06:12;7.41;95.49
75153;HTU21D;63734;45.218;36.708;2023-03-05T01:08:39;7.41;95.47
75153;HTU21D;63734;45.218;36.708;2023-03-05T01:11:07;7.43;95.20
75153;HTU21D;63734;45.218;36.708;2023-03-05T01:13:33;7.43;95.03
75153;HTU21D;63734;45.218;36.708;2023-03-05T01:16:00;7.42;94.85
75153;HTU21D;63734;45.218;36.708;2023-03-05T01:18:26;7.41;94.69
75153;HTU21D;63734;45.218;36.708;2023-03-05T01:20:52;7.37;94.61
75153;HTU21D;63734;45.218;36.708;2023-03-05T01:23:18;7.35;94.40
75153;HTU21D;63734;45.218;36.708;2023-03-05T01:25:44;7.34;94.17
75153;HTU21D;63734;45.218;36.708;2023-03-05T01:28:10;7.34;93.98
75153;HTU21D;63734;45.218;36.708;2023-03-05T01:30:36;7.38;93.72
75153;HTU21D;63734;45.218;36.708;2023-03-05T01:33:02;7.40;93.59
75153;HTU21D;63734;45.218;36.708;2023-03-05T01:35:29;7.41;93.35
75153;HTU21D;63734;45.218;36.708;2023-03-05T01:37:55;7.44;93.24
75153;HTU21D;63734;45.218;36.708;2023-03-05T01:40:30;7.49;93.06
75153;HTU21D;63734;45.218;36.708;2023-03-05T01:43:00;7.53;92.99
75153;HTU21D;63734;45.218;36.708;2023-03-05T01:45:29;7.59;92.75
75153;HTU21D;63734;45.218;36.708;2023-03-05T01:47:57;7.62;92.65
75153;HTU21D;63734;45.218;36.708;2023-03-05T01:50:24;7.63;92.49
75153;HTU21D;63734;45.218;36.708;2023-03-05T01:53:00;7.62;92.39
75153;HTU21D;63734;45.218;36.708;2023-03-05T01:55:28;7.68;92.25
75153;HTU21D;63734;45.218;36.708;2023-03-05T01:57:59;7.69;92.14
75153;HTU21D;63734;45.218;36.708;2023-03-05T02:00:31;7.71;92.03
75153;HTU21D;63734;45.218;36.708;2023-03-05T02:03:04;7.71;92.01
75153;HTU21D;63734;45.218;36.708;2023-03-05T02:05:33;7.71;91.88
75153;HTU21D;63734;45.218;36.708;2023-03-05T02:08:03;7.71;91.91
75153;HTU21D;63734;45.218;36.708;2023-03-05T02:10:35;7.71;91.87
75153;HTU21D;63734;45.218;36.708;2023-03-05T02:13:06;7.70;91.83
75153;HTU21D;63734;45.218;36.708;2023-03-05T02:15:33;7.71;91.84
75153;HTU21D;63734;45.218;36.708;2023-03-05T02:17:59;7.68;91.79
75153;HTU21D;63734;45.218;36.708;2023-03-05T02:20:41;7.65;91.93
75153;HTU21D;63734;45.218;36.708;2023-03-05T02:23:08;7.68;91.90
75153;HTU21D;63734;45.218;36.708;2023-03-05T02:25:35;7.64;91.93
75153;HTU21D;63734;45.218;36.708;2023-03-05T02:30:32;7.61;92.05
75153;HTU21D;63734;45.218;36.708;2023-03-05T02:32:58;7.63;92.03
75153;HTU21D;63734;45.218;36.708;2023-03-05T02:35:25;7.63;91.89
75153;HTU21D;63734;45.218;36.708;2023-03-05T02:37:51;7.64;91.74
75153;HTU21D;63734;45.218;36.708;2023-03-05T02:40:17;7.63;91.52
75153;HTU21D;63734;45.218;36.708;2023-03-05T02:42:44;7.65;91.41
75153;HTU21D;63734;45.218;36.708;2023-03-05T02:45:12;7.67;91.36
75153;HTU21D;63734;45.218;36.708;2023-03-05T02:47:39;7.69;91.21
75153;HTU21D;63734;45.218;36.708;2023-03-05T02:50:07;7.72;91.19
75153;HTU21D;63734;45.218;36.708;2023-03-05T02:52:36;7.77;91.23
75153;HTU21D;63734;45.218;36.708;2023-03-05T02:55:05;7.81;91.11
75153;HTU21D;63734;45.218;36.708;2023-03-05T02:57:31;7.79;91.08
75153;HTU21D;63734;45.218;36.708;2023-03-05T02:59:57;7.78;90.98
75153;HTU21D;63734;45.218;36.708;2023-03-05T03:02:23;7.81;91.03
75153;HTU21D;63734;45.218;36.708;2023-03-05T03:04:49;7.78;91.05
75153;HTU21D;63734;45.218;36.708;2023-03-05T03:07:15;7.79;90.98
75153;HTU21D;63734;45.218;36.708;2023-03-05T03:09:41;7.75;91.05
75153;HTU21D;63734;45.218;36.708;2023-03-05T03:12:09;7.72;91.15
75153;HTU21D;63734;45.218;36.708;2023-03-05T03:14:37;7.68;91.24
75153;HTU21D;63734;45.218;36.708;2023-03-05T03:17:09;7.69;91.43
75153;HTU21D;63734;45.218;36.708;2023-03-05T03:19:36;7.67;91.34
75153;HTU21D;63734;45.218;36.708;2023-03-05T03:22:02;7.64;91.34
75153;HTU21D;63734;45.218;36.708;2023-03-05T03:24:30;7.60;91.36
75153;HTU21D;63734;45.218;36.708;2023-03-05T03:26:56;7.56;91.40
75153;HTU21D;63734;45.218;36.708;2023-03-05T03:29:22;7.55;91.49
75153;HTU21D;63734;45.218;36.708;2023-03-05T03:31:48;7.52;91.49
75153;HTU21D;63734;45.218;36.708;2023-03-05T03:34:15;7.48;91.56
75153;HTU21D;63734;45.218;36.708;2023-03-05T03:36:43;7.47;91.68
75153;HTU21D;63734;45.218;36.708;2023-03-05T03:39:09;7.44;91.82
75153;HTU21D;63734;45.218;36.708;2023-03-05T03:41:39;7.38;91.87
75153;HTU21D;63734;45.218;36.708;2023-03-05T03:44:05;7.42;92.23
75153;HTU21D;63734;45.218;36.708;2023-03-05T03:46:33;7.39;92.04
75153;HTU21D;63734;45.218;36.708;2023-03-05T03:49:00;7.38;92.13
75153;HTU21D;63734;45.218;36.708;2023-03-05T03:51:26;7.33;92.27
75153;HTU21D;63734;45.218;36.708;2023-03-05T03:53:52;7.34;92.30
75153;HTU21D;63734;45.218;36.708;2023-03-05T03:56:18;7.34;92.34
75153;HTU21D;63734;45.218;36.708;2023-03-05T03:58:44;7.32;92.39
75153;HTU21D;63734;45.218;36.708;2023-03-05T04:01:10;7.33;92.53
75153;HTU21D;63734;45.218;36.708;2023-03-05T04:03:36;7.32;92.53
75153;HTU21D;63734;45.218;36.708;2023-03-05T04:06:02;7.31;92.62
75153;HTU21D;63734;45.218;36.708;2023-03-05T04:08:29;7.32;92.92
75153;HTU21D;63734;45.218;36.708;2023-03-05T04:10:55;7.34;93.08
75153;HTU21D;63734;45.218;36.708;2023-03-05T04:13:21;7.35;93.39
75153;HTU21D;63734;45.218;36.708;2023-03-05T04:15:47;7.35;93.49
75153;HTU21D;63734;45.218;36.708;2023-03-05T04:18:12;7.35;93.65
75153;HTU21D;63734;45.218;36.708;2023-03-05T04:20:38;7.33;93.50
75153;HTU21D;63734;45.218;36.708;2023-03-05T04:23:04;7.38;93.72
75153;HTU21D;63734;45.218;36.708;2023-03-05T04:25:30;7.40;93.57
75153;HTU21D;63734;45.218;36.708;2023-03-05T04:27:56;7.44;93.95
75153;HTU21D;63734;45.218;36.708;2023-03-05T04:30:22;7.48;93.97
75153;HTU21D;63734;45.218;36.708;2023-03-05T04:32:48;7.49;93.83
75153;HTU21D;63734;45.218;36.708;2023-03-05T04:35:14;7.55;93.95
75153;HTU21D;63734;45.218;36.708;2023-03-05T04:37:40;7.58;93.96
75153;HTU21D;63734;45.218;36.708;2023-03-05T04:40:07;7.60;94.01
75153;HTU21D;63734;45.218;36.708;2023-03-05T04:42:33;7.63;93.98
75153;HTU21D;63734;45.218;36.708;2023-03-05T04:44:59;7.68;93.86
75153;HTU21D;63734;45.218;36.708;2023-03-05T04:47:25;7.72;93.64
75153;HTU21D;63734;45.218;36.708;2023-03-05T04:49:51;7.76;93.45
75153;HTU21D;63734;45.218;36.708;2023-03-05T04:52:17;7.82;93.27
75153;HTU21D;63734;45.218;36.708;2023-03-05T04:54:44;7.84;93.14
75153;HTU21D;63734;45.218;36.708;2023-03-05T04:57:10;7.89;93.03
75153;HTU21D;63734;45.218;36.708;2023-03-05T04:59:36;7.93;92.88
75153;HTU21D;63734;45.218;36.708;2023-03-05T05:02:03;7.96;92.81
75153;HTU21D;63734;45.218;36.708;2023-03-05T05:04:29;7.97;92.72
75153;HTU21D;63734;45.218;36.708;2023-03-05T05:06:56;7.99;92.66
75153;HTU21D;63734;45.218;36.708;2023-03-05T05:09:23;8.03;92.54
75153;HTU21D;63734;45.218;36.708;2023-03-05T05:11:49;8.05;92.29
75153;HTU21D;63734;45.218;36.708;2023-03-05T05:14:16;8.04;92.25
75153;HTU21D;63734;45.218;36.708;2023-03-05T05:16:42;8.05;92.18
75153;HTU21D;63734;45.218;36.708;2023-03-05T05:19:08;8.06;91.92
75153;HTU21D;63734;45.218;36.708;2023-03-05T05:21:34;8.06;91.92
75153;HTU21D;63734;45.218;36.708;2023-03-05T05:24:00;8.08;91.82
75153;HTU21D;63734;45.218;36.708;2023-03-05T05:26:26;8.09;91.76
75153;HTU21D;63734;45.218;36.708;2023-03-05T05:28:52;8.08;91.68
75153;HTU21D;63734;45.218;36.708;2023-03-05T05:31:19;8.08;91.68
75153;HTU21D;63734;45.218;36.708;2023-03-05T05:33:45;8.11;91.56
75153;HTU21D;63734;45.218;36.708;2023-03-05T05:36:12;8.14;91.53
75153;HTU21D;63734;45.218;36.708;2023-03-05T05:38:40;8.17;91.51
75153;HTU21D;63734;45.218;36.708;2023-03-05T05:41:09;8.20;91.60
75153;HTU21D;63734;45.218;36.708;2023-03-05T05:43:35;8.26;91.61
75153;HTU21D;63734;45.218;36.708;2023-03-05T05:46:03;8.27;91.58
75153;HTU21D;63734;45.218;36.708;2023-03-05T05:48:31;8.30;91.56
75153;HTU21D;63734;45.218;36.708;2023-03-05T05:50:57;8.33;91.54
75153;HTU21D;63734;45.218;36.708;2023-03-05T05:53:24;8.37;91.46
75153;HTU21D;63734;45.218;36.708;2023-03-05T05:55:51;8.41;91.41
75153;HTU21D;63734;45.218;36.708;2023-03-05T05:58:17;8.47;91.37
75153;HTU21D;63734;45.218;36.708;2023-03-05T06:00:43;8.51;91.19
75153;HTU21D;63734;45.218;36.708;2023-03-05T06:03:09;8.55;91.12
75153;HTU21D;63734;45.218;36.708;2023-03-05T06:05:35;8.58;90.95
75153;HTU21D;63734;45.218;36.708;2023-03-05T06:08:01;8.61;91.00
75153;HTU21D;63734;45.218;36.708;2023-03-05T06:10:27;8.64;90.79
75153;HTU21D;63734;45.218;36.708;2023-03-05T06:12:54;8.64;90.60
75153;HTU21D;63734;45.218;36.708;2023-03-05T06:15:20;8.64;90.76
75153;HTU21D;63734;45.218;36.708;2023-03-05T06:17:46;8.65;90.57
75153;HTU21D;63734;45.218;36.708;2023-03-05T06:20:13;8.67;90.46
75153;HTU21D;63734;45.218;36.708;2023-03-05T06:22:39;8.67;90.49
75153;HTU21D;63734;45.218;36.708;2023-03-05T06:25:07;8.67;90.37
75153;HTU21D;63734;45.218;36.708;2023-03-05T06:27:34;8.66;90.34
75153;HTU21D;63734;45.218;36.708;2023-03-05T06:30:05;8.66;90.31
75153;HTU21D;63734;45.218;36.708;2023-03-05T06:32:31;8.66;90.02
75153;HTU21D;63734;45.218;36.708;2023-03-05T06:35:01;8.68;90.03
75153;HTU21D;63734;45.218;36.708;2023-03-05T06:37:33;8.73;89.90
75153;HTU21D;63734;45.218;36.708;2023-03-05T06:40:00;8.85;89.88
75153;HTU21D;63734;45.218;36.708;2023-03-05T06:42:27;9.00;89.85
75153;HTU21D;63734;45.218;36.708;2023-03-05T06:44:53;9.16;89.56
75153;HTU21D;63734;45.218;36.708;2023-03-05T06:47:20;9.24;89.27
75153;HTU21D;63734;45.218;36.708;2023-03-05T06:49:46;9.29;88.96
75153;HTU21D;63734;45.218;36.708;2023-03-05T06:52:12;9.33;88.90
75153;HTU21D;63734;45.218;36.708;2023-03-05T06:54:38;9.36;88.92
75153;HTU21D;63734;45.218;36.708;2023-03-05T06:57:04;9.38;88.73
75153;HTU21D;63734;45.218;36.708;2023-03-05T06:59:29;9.33;88.32
75153;HTU21D;63734;45.218;36.708;2023-03-05T07:01:55;9.29;88.61
75153;HTU21D;63734;45.218;36.708;2023-03-05T07:04:21;9.27;88.70
75153;HTU21D;63734;45.218;36.708;2023-03-05T07:06:48;9.26;88.83
75153;HTU21D;63734;45.218;36.708;2023-03-05T07:09:15;9.27;88.85
75153;HTU21D;63734;45.218;36.708;2023-03-05T07:11:41;9.31;88.84
75153;HTU21D;63734;45.218;36.708;2023-03-05T07:14:07;9.29;88.74
75153;HTU21D;63734;45.218;36.708;2023-03-05T07:16:34;9.24;88.78
75153;HTU21D;63734;45.218;36.708;2023-03-05T07:19:03;9.19;88.94
75153;HTU21D;63734;45.218;36.708;2023-03-05T07:21:32;9.12;89.10
75153;HTU21D;63734;45.218;36.708;2023-03-05T07:24:03;9.10;89.37
75153;HTU21D;63734;45.218;36.708;2023-03-05T07:26:30;9.11;89.54
75153;HTU21D;63734;45.218;36.708;2023-03-05T07:28:58;9.17;89.52
75153;HTU21D;63734;45.218;36.708;2023-03-05T07:31:25;9.24;89.69
75153;HTU21D;63734;45.218;36.708;2023-03-05T07:33:55;9.29;89.70
75153;HTU21D;63734;45.218;36.708;2023-03-05T07:36:22;9.36;89.73
75153;HTU21D;63734;45.218;36.708;2023-03-05T07:38:48;9.47;89.57
75153;HTU21D;63734;45.218;36.708;2023-03-05T07:41:16;9.56;89.16
75153;HTU21D;63734;45.218;36.708;2023-03-05T07:43:51;9.59;88.69
75153;HTU21D;63734;45.218;36.708;2023-03-05T07:46:20;9.57;88.53
75153;HTU21D;63734;45.218;36.708;2023-03-05T07:48:46;9.48;88.38
75153;HTU21D;63734;45.218;36.708;2023-03-05T07:51:15;9.41;88.64
75153;HTU21D;63734;45.218;36.708;2023-03-05T07:53:43;9.40;88.81
75153;HTU21D;63734;45.218;36.708;2023-03-05T07:56:09;9.35;88.79
75153;HTU21D;63734;45.218;36.708;2023-03-05T07:58:36;9.27;89.09
75153;HTU21D;63734;45.218;36.708;2023-03-05T08:01:02;9.27;89.19
75153;HTU21D;63734;45.218;36.708;2023-03-05T08:03:28;9.30;89.24
75153;HTU21D;63734;45.218;36.708;2023-03-05T08:05:54;9.41;89.18
75153;HTU21D;63734;45.218;36.708;2023-03-05T08:08:20;9.53;88.99
75153;HTU21D;63734;45.218;36.708;2023-03-05T08:10:46;9.61;88.89
75153;HTU21D;63734;45.218;36.708;2023-03-05T08:13:12;9.67;88.68
75153;HTU21D;63734;45.218;36.708;2023-03-05T08:15:38;9.71;88.43
75153;HTU21D;63734;45.218;36.708;2023-03-05T08:18:04;9.72;87.97
75153;HTU21D;63734;45.218;36.708;2023-03-05T08:20:34;9.66;87.92
75153;HTU21D;63734;45.218;36.708;2023-03-05T08:23:00;9.62;88.22
75153;HTU21D;63734;45.218;36.708;2023-03-05T08:25:26;9.61;88.34
75153;HTU21D;63734;45.218;36.708;2023-03-05T08:27:52;9.54;88.35
75153;HTU21D;63734;45.218;36.708;2023-03-05T08:30:19;9.51;88.46
75153;HTU21D;63734;45.218;36.708;2023-03-05T08:32:50;9.48;88.70
75153;HTU21D;63734;45.218;36.708;2023-03-05T08:35:16;9.42;88.57
75153;HTU21D;63734;45.218;36.708;2023-03-05T08:37:42;9.35;88.68
75153;HTU21D;63734;45.218;36.708;2023-03-05T08:40:09;9.33;88.66
75153;HTU21D;63734;45.218;36.708;2023-03-05T08:42:35;9.33;88.70
75153;HTU21D;63734;45.218;36.708;2023-03-05T08:45:01;9.38;88.70
75153;HTU21D;63734;45.218;36.708;2023-03-05T08:47:27;9.37;88.70
75153;HTU21D;63734;45.218;36.708;2023-03-05T08:49:53;9.36;88.82
75153;HTU21D;63734;45.218;36.708;2023-03-05T08:52:22;9.37;88.86
75153;HTU21D;63734;45.218;36.708;2023-03-05T08:54:48;9.48;88.98
75153;HTU21D;63734;45.218;36.708;2023-03-05T08:57:14;9.62;88.76
75153;HTU21D;63734;45.218;36.708;2023-03-05T08:59:40;9.62;88.47
75153;HTU21D;63734;45.218;36.708;2023-03-05T09:02:12;9.63;88.51
75153;HTU21D;63734;45.218;36.708;2023-03-05T09:04:38;9.62;88.22
75153;HTU21D;63734;45.218;36.708;2023-03-05T09:07:04;9.56;88.33
75153;HTU21D;63734;45.218;36.708;2023-03-05T09:09:30;9.50;88.64
75153;HTU21D;63734;45.218;36.708;2023-03-05T09:11:59;9.53;88.71
75153;HTU21D;63734;45.218;36.708;2023-03-05T09:14:25;9.55;88.91
75153;HTU21D;63734;45.218;36.708;2023-03-05T09:16:54;9.54;88.86
75153;HTU21D;63734;45.218;36.708;2023-03-05T09:19:20;9.56;88.91
75153;HTU21D;63734;45.218;36.708;2023-03-05T09:21:46;9.57;88.81
75153;HTU21D;63734;45.218;36.708;2023-03-05T09:24:12;9.60;88.70
75153;HTU21D;63734;45.218;36.708;2023-03-05T09:26:38;9.62;88.85
75153;HTU21D;63734;45.218;36.708;2023-03-05T09:29:05;9.70;88.76
75153;HTU21D;63734;45.218;36.708;2023-03-05T09:31:34;9.70;88.62
75153;HTU21D;63734;45.218;36.708;2023-03-05T09:34:01;9.76;88.66
75153;HTU21D;63734;45.218;36.708;2023-03-05T09:36:28;9.88;88.52
75153;HTU21D;63734;45.218;36.708;2023-03-05T09:38:55;9.93;88.25
75153;HTU21D;63734;45.218;36.708;2023-03-05T09:47:01;10.04;87.76
75153;HTU21D;63734;45.218;36.708;2023-03-05T09:49:57;10.01;87.78
75153;HTU21D;63734;45.218;36.708;2023-03-05T09:52:22;9.99;87.73
75153;HTU21D;63734;45.218;36.708;2023-03-05T09:54:55;9.92;87.81
75153;HTU21D;63734;45.218;36.708;2023-03-05T09:57:39;9.83;87.99
75153;HTU21D;63734;45.218;36.708;2023-03-05T10:02:47;9.98;88.22
75153;HTU21D;63734;45.218;36.708;2023-03-05T10:05:23;10.11;88.06
75153;HTU21D;63734;45.218;36.708;2023-03-05T10:07:56;10.18;87.55
75153;HTU21D;63734;45.218;36.708;2023-03-05T10:10:48;10.21;87.64
75153;HTU21D;63734;45.218;36.708;2023-03-05T10:13:21;10.41;87.50
75153;HTU21D;63734;45.218;36.708;2023-03-05T10:21:45;10.67;85.69
75153;HTU21D;63734;45.218;36.708;2023-03-05T10:27:15;10.88;85.71
75153;HTU21D;63734;45.218;36.708;2023-03-05T10:32:35;10.98;84.61
75153;HTU21D;63734;45.218;36.708;2023-03-05T10:38:32;10.85;84.15
75153;HTU21D;63734;45.218;36.708;2023-03-05T10:41:25;10.83;84.39
75153;HTU21D;63734;45.218;36.708;2023-03-05T10:46:35;11.16;84.13
75153;HTU21D;63734;45.218;36.708;2023-03-05T10:49:17;11.29;83.50
75153;HTU21D;63734;45.218;36.708;2023-03-05T10:54:29;11.27;83.45
75153;HTU21D;63734;45.218;36.708;2023-03-05T10:57:26;11.20;83.45
75153;HTU21D;63734;45.218;36.708;2023-03-05T11:00:28;11.16;83.55
75153;HTU21D;63734;45.218;36.708;2023-03-05T11:03:00;11.20;83.90
75153;HTU21D;63734;45.218;36.708;2023-03-05T11:11:16;11.30;83.12
75153;HTU21D;63734;45.218;36.708;2023-03-05T11:13:55;11.25;83.23
75153;HTU21D;63734;45.218;36.708;2023-03-05T11:16:26;11.34;83.52
75153;HTU21D;63734;45.218;36.708;2023-03-05T11:21:41;11.34;82.93
75153;HTU21D;63734;45.218;36.708;2023-03-05T11:24:17;11.26;83.45
75153;HTU21D;63734;45.218;36.708;2023-03-05T11:26:53;11.38;83.38
75153;HTU21D;63734;45.218;36.708;2023-03-05T11:29:29;11.47;83.20
75153;HTU21D;63734;45.218;36.708;2023-03-05T11:32:14;11.60;82.52
75153;HTU21D;63734;45.218;36.708;2023-03-05T11:34:41;11.55;82.39
75153;HTU21D;63734;45.218;36.708;2023-03-05T11:37:25;11.39;82.65
75153;HTU21D;63734;45.218;36.708;2023-03-05T11:42:39;11.33;83.51
75153;HTU21D;63734;45.218;36.708;2023-03-05T11:45:06;11.40;83.28
75153;HTU21D;63734;45.218;36.708;2023-03-05T11:47:53;11.34;83.22
75153;HTU21D;63734;45.218;36.708;2023-03-05T11:50:27;11.40;83.39
75153;HTU21D;63734;45.218;36.708;2023-03-05T11:53:01;11.48;83.52
75153;HTU21D;63734;45.218;36.708;2023-03-05T12:00:45;11.44;83.26
75153;HTU21D;63734;45.218;36.708;2023-03-05T12:03:24;11.45;83.50
75153;HTU21D;63734;45.218;36.708;2023-03-05T12:06:05;11.51;83.36
75153;HTU21D;63734;45.218;36.708;2023-03-05T12:08:39;11.47;83.42
75153;HTU21D;63734;45.218;36.708;2023-03-05T12:11:15;11.36;82.74
75153;HTU21D;63734;45.218;36.708;2023-03-05T12:13:47;11.14;83.56
75153;HTU21D;63734;45.218;36.708;2023-03-05T12:18:56;10.98;83.87
75153;HTU21D;63734;45.218;36.708;2023-03-05T12:21:38;10.90;84.29
75153;HTU21D;63734;45.218;36.708;2023-03-05T12:29:50;10.93;84.42
75153;HTU21D;63734;45.218;36.708;2023-03-05T12:42:41;10.64;85.61
75153;HTU21D;63734;45.218;36.708;2023-03-05T12:55:53;10.88;85.51
75153;HTU21D;63734;45.218;36.708;2023-03-05T12:58:36;10.83;85.61
75153;HTU21D;63734;45.218;36.708;2023-03-05T13:04:32;10.75;85.42
75153;HTU21D;63734;45.218;36.708;2023-03-05T13:06:37;10.65;85.61
75153;HTU21D;63734;45.218;36.708;2023-03-05T13:09:17;10.52;86.16
75153;HTU21D;63734;45.218;36.708;2023-03-05T13:11:47;10.56;86.38
75153;HTU21D;63734;45.218;36.708;2023-03-05T13:19:56;10.59;86.43
75153;HTU21D;63734;45.218;36.708;2023-03-05T13:22:22;10.62;86.32
75153;HTU21D;63734;45.218;36.708;2023-03-05T13:25:23;10.64;86.31
75153;HTU21D;63734;45.218;36.708;2023-03-05T13:27:49;10.62;86.22
75153;HTU21D;63734;45.218;36.708;2023-03-05T13:30:27;10.55;86.43
75153;HTU21D;63734;45.218;36.708;2023-03-05T13:32:59;10.48;86.58
75153;HTU21D;63734;45.218;36.708;2023-03-05T13:35:29;10.50;86.80
75153;HTU21D;63734;45.218;36.708;2023-03-05T13:37:56;10.51;86.72
75153;HTU21D;63734;45.218;36.708;2023-03-05T13:40:28;10.44;86.83
75153;HTU21D;63734;45.218;36.708;2023-03-05T13:43:05;10.37;87.14
75153;HTU21D;63734;45.218;36.708;2023-03-05T13:45:34;10.31;87.27
75153;HTU21D;63734;45.218;36.708;2023-03-05T13:48:05;10.31;87.44
75153;HTU21D;63734;45.218;36.708;2023-03-05T13:50:37;10.30;87.64
75153;HTU21D;63734;45.218;36.708;2023-03-05T13:53:36;10.39;87.49
75153;HTU21D;63734;45.218;36.708;2023-03-05T13:56:12;10.34;87.45
75153;HTU21D;63734;45.218;36.708;2023-03-05T13:58:48;10.33;87.53
75153;HTU21D;63734;45.218;36.708;2023-03-05T14:01:31;10.34;87.48
75153;HTU21D;63734;45.218;36.708;2023-03-05T14:04:17;10.34;87.58
75153;HTU21D;63734;45.218;36.708;2023-03-05T14:07:03;10.30;87.57
75153;HTU21D;63734;45.218;36.708;2023-03-05T14:14:37;10.18;88.02
75153;HTU21D;63734;45.218;36.708;2023-03-05T14:17:31;10.18;88.04
75153;HTU21D;63734;45.218;36.708;2023-03-05T14:22:43;10.06;88.30
75153;HTU21D;63734;45.218;36.708;2023-03-05T14:25:32;9.96;88.67
75153;HTU21D;63734;45.218;36.708;2023-03-05T14:30:30;9.86;88.99
75153;HTU21D;63734;45.218;36.708;2023-03-05T14:32:58;9.82;89.11
75153;HTU21D;63734;45.218;36.708;2023-03-05T14:35:27;9.76;89.32
75153;HTU21D;63734;45.218;36.708;2023-03-05T14:37:55;9.72;89.35
75153;HTU21D;63734;45.218;36.708;2023-03-05T14:42:58;9.65;89.43
75153;HTU21D;63734;45.218;36.708;2023-03-05T14:45:32;9.55;89.70
75153;HTU21D;63734;45.218;36.708;2023-03-05T14:48:00;9.49;89.96
75153;HTU21D;63734;45.218;36.708;2023-03-05T14:50:29;9.47;89.94
75153;HTU21D;63734;45.218;36.708;2023-03-05T14:52:59;9.44;90.12
75153;HTU21D;63734;45.218;36.708;2023-03-05T14:55:28;9.40;90.28
75153;HTU21D;63734;45.218;36.708;2023-03-05T14:58:11;9.37;90.46
75153;HTU21D;63734;45.218;36.708;2023-03-05T15:00:39;9.36;90.63
75153;HTU21D;63734;45.218;36.708;2023-03-05T15:03:05;9.32;90.63
75153;HTU21D;63734;45.218;36.708;2023-03-05T15:05:32;9.29;90.83
75153;HTU21D;63734;45.218;36.708;2023-03-05T15:07:58;9.23;90.88
75153;HTU21D;63734;45.218;36.708;2023-03-05T15:10:25;9.21;90.92
75153;HTU21D;63734;45.218;36.708;2023-03-05T15:12:51;9.17;91.14
75153;HTU21D;63734;45.218;36.708;2023-03-05T15:15:19;9.14;91.13
75153;HTU21D;63734;45.218;36.708;2023-03-05T15:17:48;9.10;91.18
75153;HTU21D;63734;45.218;36.708;2023-03-05T15:20:19;9.06;91.24
75153;HTU21D;63734;45.218;36.708;2023-03-05T15:22:46;9.03;91.38
75153;HTU21D;63734;45.218;36.708;2023-03-05T15:25:13;9.00;91.43
75153;HTU21D;63734;45.218;36.708;2023-03-05T15:27:39;8.92;91.78
75153;HTU21D;63734;45.218;36.708;2023-03-05T15:30:07;8.89;91.85
75153;HTU21D;63734;45.218;36.708;2023-03-05T15:32:37;8.82;91.98
75153;HTU21D;63734;45.218;36.708;2023-03-05T15:35:04;8.78;92.31
75153;HTU21D;63734;45.218;36.708;2023-03-05T15:37:31;8.74;92.57
75153;HTU21D;63734;45.218;36.708;2023-03-05T15:39:57;8.70;92.68
75153;HTU21D;63734;45.218;36.708;2023-03-05T15:42:23;8.67;92.85
75153;HTU21D;63734;45.218;36.708;2023-03-05T15:44:49;8.62;93.01
75153;HTU21D;63734;45.218;36.708;2023-03-05T15:47:15;8.58;93.29
75153;HTU21D;63734;45.218;36.708;2023-03-05T15:49:41;8.53;93.40
75153;HTU21D;63734;45.218;36.708;2023-03-05T15:52:07;8.51;93.40
75153;HTU21D;63734;45.218;36.708;2023-03-05T15:54:34;8.52;93.37
75153;HTU21D;63734;45.218;36.708;2023-03-05T15:57:01;8.53;93.37
75153;HTU21D;63734;45.218;36.708;2023-03-05T15:59:27;8.53;93.46
75153;HTU21D;63734;45.218;36.708;2023-03-05T16:01:53;8.52;93.33
75153;HTU21D;63734;45.218;36.708;2023-03-05T16:04:19;8.51;93.48
75153;HTU21D;63734;45.218;36.708;2023-03-05T16:06:48;8.50;93.37
75153;HTU21D;63734;45.218;36.708;2023-03-05T16:09:16;8.51;93.27
75153;HTU21D;63734;45.218;36.708;2023-03-05T16:11:44;8.53;93.26
75153;HTU21D;63734;45.218;36.708;2023-03-05T16:14:16;8.52;93.17
75153;HTU21D;63734;45.218;36.708;2023-03-05T16:16:46;8.51;93.16
75153;HTU21D;63734;45.218;36.708;2023-03-05T16:19:16;8.49;93.21
75153;HTU21D;63734;45.218;36.708;2023-03-05T16:21:44;8.49;93.21
75153;HTU21D;63734;45.218;36.708;2023-03-05T16:24:11;8.50;93.19
75153;HTU21D;63734;45.218;36.708;2023-03-05T16:26:41;8.52;93.17
75153;HTU21D;63734;45.218;36.708;2023-03-05T16:29:08;8.55;93.15
75153;HTU21D;63734;45.218;36.708;2023-03-05T16:31:35;8.57;93.14
75153;HTU21D;63734;45.218;36.708;2023-03-05T16:34:06;8.59;93.14
75153;HTU21D;63734;45.218;36.708;2023-03-05T16:36:33;8.62;93.10
75153;HTU21D;63734;45.218;36.708;2023-03-05T16:39:02;8.64;93.13
75153;HTU21D;63734;45.218;36.708;2023-03-05T16:41:29;8.67;93.07
75153;HTU21D;63734;45.218;36.708;2023-03-05T16:43:56;8.72;92.99
75153;HTU21D;63734;45.218;36.708;2023-03-05T16:46:27;8.76;92.91
75153;HTU21D;63734;45.218;36.708;2023-03-05T16:48:55;8.75;92.94
75153;HTU21D;63734;45.218;36.708;2023-03-05T16:51:22;8.72;93.02
75153;HTU21D;63734;45.218;36.708;2023-03-05T16:53:49;8.71;93.07
75153;HTU21D;63734;45.218;36.708;2023-03-05T16:56:16;8.73;93.11
75153;HTU21D;63734;45.218;36.708;2023-03-05T16:58:43;8.64;93.43
75153;HTU21D;63734;45.218;36.708;2023-03-05T17:01:12;8.60;94.43